createdAt,value
2019-04-04T00:00:59.620Z,19.36
2019-04-04T00:01:59.284Z,19.36
2019-04-04T00:02:59.339Z,19.36
2019-04-04T00:03:59.344Z,19.35
2019-04-04T00:04:59.347Z,19.35
2019-04-04T00:05:59.494Z,19.34
2019-04-04T00:06:59.433Z,19.34
2019-04-04T00:08:00.015Z,19.34
2019-04-04T00:09:00.057Z,19.33
2019-04-04T00:09:59.533Z,19.34
2019-04-04T00:10:59.524Z,19.33
2019-04-04T00:11:59.565Z,19.33
2019-04-04T00:12:59.490Z,19.33
2019-04-04T00:13:59.476Z,19.32
2019-04-04T00:14:59.596Z,19.32
2019-04-04T00:15:59.267Z,19.31
2019-04-04T00:16:59.228Z,19.3
2019-04-04T00:17:59.270Z,19.31
2019-04-04T00:18:59.282Z,19.31
2019-04-04T00:20:00.867Z,19.3
2019-04-04T00:20:59.322Z,19.3
2019-04-04T00:21:59.355Z,19.31
2019-04-04T00:22:59.331Z,19.3
2019-04-04T00:23:59.377Z,19.3
2019-04-04T00:24:59.389Z,19.29
2019-04-04T00:25:59.375Z,19.29
2019-04-04T00:26:59.397Z,19.29
2019-04-04T00:27:59.513Z,19.29
2019-04-04T00:29:01.333Z,19.29
2019-04-04T00:29:59.413Z,19.29
2019-04-04T00:30:59.484Z,19.28
2019-04-04T00:31:59.468Z,19.28
2019-04-04T00:32:59.267Z,19.28
2019-04-04T00:33:59.268Z,19.27
2019-04-04T00:34:59.771Z,19.27
2019-04-04T00:36:00.620Z,19.26
2019-04-04T00:36:59.302Z,19.26
2019-04-04T00:37:59.380Z,19.26
2019-04-04T00:38:59.350Z,19.27
2019-04-04T00:39:59.368Z,19.26
2019-04-04T00:40:59.382Z,19.26
2019-04-04T00:41:59.388Z,19.26
2019-04-04T00:42:59.433Z,19.26
2019-04-04T00:43:59.716Z,19.25
2019-04-04T00:44:59.461Z,19.25
2019-04-04T00:46:00.648Z,19.24
2019-04-04T00:47:01.480Z,19.24
2019-04-04T00:48:01.051Z,19.24
2019-04-04T00:48:59.483Z,19.23
2019-04-04T00:49:59.338Z,19.24
2019-04-04T00:50:59.231Z,19.23
2019-04-04T00:51:59.263Z,19.24
2019-04-04T00:52:59.235Z,19.23
2019-04-04T00:53:59.372Z,19.23
2019-04-04T00:54:59.308Z,19.22
2019-04-04T00:55:59.313Z,19.22
2019-04-04T00:56:59.326Z,19.22
2019-04-04T00:57:59.345Z,19.22
2019-04-04T00:58:59.428Z,19.21
2019-04-04T00:59:59.376Z,19.21
2019-04-04T01:00:59.373Z,19.22
2019-04-04T01:01:59.397Z,19.21
2019-04-04T01:02:59.390Z,19.22
2019-04-04T01:04:00.449Z,19.21
2019-04-04T01:05:01.233Z,19.21
2019-04-04T01:06:02.652Z,19.2
2019-04-04T01:06:59.464Z,19.2
2019-04-04T01:07:59.335Z,19.19
2019-04-04T01:08:59.295Z,19.2
2019-04-04T01:09:59.274Z,19.19
2019-04-04T01:10:59.360Z,19.2
2019-04-04T01:11:59.314Z,19.19
2019-04-04T01:12:59.299Z,19.19
2019-04-04T01:13:59.331Z,19.18
2019-04-04T01:15:00.079Z,19.18
2019-04-04T01:16:02.441Z,19.18
2019-04-04T01:16:59.414Z,19.17
2019-04-04T01:17:59.385Z,19.17
2019-04-04T01:18:59.434Z,19.16
2019-04-04T01:19:59.488Z,19.17
2019-04-04T01:20:59.232Z,19.17
2019-04-04T01:21:59.523Z,19.17
2019-04-04T01:22:59.457Z,19.16
2019-04-04T01:23:59.505Z,19.17
2019-04-04T01:25:00.959Z,19.16
2019-04-04T01:25:59.203Z,19.16
2019-04-04T01:26:59.330Z,19.15
2019-04-04T01:27:59.267Z,19.16
2019-04-04T01:28:59.266Z,19.16
2019-04-04T01:29:59.282Z,19.15
2019-04-04T01:30:59.387Z,19.15
2019-04-04T01:31:59.215Z,19.14
2019-04-04T01:32:59.312Z,19.15
2019-04-04T01:33:59.358Z,19.14
2019-04-04T01:34:59.673Z,19.14
2019-04-04T01:35:59.360Z,19.14
2019-04-04T01:36:59.370Z,19.14
2019-04-04T01:37:59.476Z,19.13
2019-04-04T01:39:00.116Z,19.13
2019-04-04T01:39:59.866Z,19.14
2019-04-04T01:40:59.501Z,19.13
2019-04-04T01:41:59.466Z,19.13
2019-04-04T01:42:59.282Z,19.13
2019-04-04T01:44:04.748Z,19.12
2019-04-04T01:44:59.329Z,19.12
2019-04-04T01:45:59.274Z,19.12
2019-04-04T01:46:59.556Z,19.11
2019-04-04T01:47:59.420Z,19.11
2019-04-04T01:48:59.569Z,19.11
2019-04-04T01:49:59.283Z,19.1
2019-04-04T01:50:59.243Z,19.11
2019-04-04T01:51:59.408Z,19.11
2019-04-04T01:52:59.974Z,19.11
2019-04-04T01:54:00.970Z,19.11
2019-04-04T01:55:02.943Z,19.09
2019-04-04T01:55:59.413Z,19.1
2019-04-04T01:56:59.454Z,19.1
2019-04-04T01:57:59.715Z,19.1
2019-04-04T01:58:59.450Z,19.09
2019-04-04T01:59:59.449Z,19.09
2019-04-04T02:00:59.207Z,19.08
2019-04-04T02:01:59.216Z,19.09
2019-04-04T02:02:59.200Z,19.08
2019-04-04T02:03:59.264Z,19.09
2019-04-04T02:04:59.238Z,19.08
2019-04-04T02:05:59.250Z,19.08
2019-04-04T02:06:59.713Z,19.08
2019-04-04T02:08:00.833Z,19.07
2019-04-04T02:09:02.444Z,19.07
2019-04-04T02:09:59.838Z,19.07
2019-04-04T02:10:59.730Z,19.07
2019-04-04T02:11:59.508Z,19.07
2019-04-04T02:12:59.505Z,19.07
2019-04-04T02:13:59.206Z,19.06
2019-04-04T02:14:59.397Z,19.06
2019-04-04T02:15:59.406Z,19.06
2019-04-04T02:16:59.389Z,19.06
2019-04-04T02:17:59.483Z,19.06
2019-04-04T02:18:59.528Z,19.04
2019-04-04T02:19:59.338Z,19.05
2019-04-04T02:20:59.488Z,19.05
2019-04-04T02:21:59.755Z,19.05
2019-04-04T02:23:01.157Z,19.05
2019-04-04T02:24:01.273Z,19.04
2019-04-04T02:25:02.675Z,19.05
2019-04-04T02:25:59.319Z,19.04
2019-04-04T02:26:59.321Z,19.04
2019-04-04T02:27:59.319Z,19.04
2019-04-04T02:28:59.309Z,19.04
2019-04-04T02:29:59.444Z,19.03
2019-04-04T02:30:59.393Z,19.03
2019-04-04T02:31:59.392Z,19.02
2019-04-04T02:33:00.620Z,19.03
2019-04-04T02:33:59.382Z,19.02
2019-04-04T02:34:59.384Z,19.02
2019-04-04T02:35:59.446Z,19.03
2019-04-04T02:36:59.522Z,19.02
2019-04-04T02:37:59.465Z,19.02
2019-04-04T02:38:59.995Z,19.02
2019-04-04T02:39:59.320Z,19.01
2019-04-04T02:40:59.216Z,19.01
2019-04-04T02:41:59.296Z,19.01
2019-04-04T02:42:59.345Z,19.01
2019-04-04T02:44:00.517Z,19.01
2019-04-04T02:44:59.287Z,19.01
2019-04-04T02:45:59.291Z,19.01
2019-04-04T02:46:59.311Z,19.01
2019-04-04T02:47:59.354Z,19.01
2019-04-04T02:48:59.295Z,19
2019-04-04T02:50:01.011Z,19
2019-04-04T02:50:59.439Z,19
2019-04-04T02:51:59.549Z,19
2019-04-04T02:52:59.369Z,19
2019-04-04T02:53:59.743Z,18.99
2019-04-04T02:54:59.562Z,18.99
2019-04-04T02:56:02.105Z,18.99
2019-04-04T02:56:59.254Z,18.98
2019-04-04T02:57:59.303Z,18.99
2019-04-04T02:58:59.292Z,18.98
2019-04-04T02:59:59.268Z,18.98
2019-04-04T03:01:00.422Z,18.98
2019-04-04T03:01:59.282Z,18.98
2019-04-04T03:02:59.286Z,18.98
2019-04-04T03:03:59.334Z,18.97
2019-04-04T03:04:59.354Z,18.97
2019-04-04T03:05:59.455Z,18.98
2019-04-04T03:06:59.377Z,18.97
2019-04-04T03:08:02.896Z,18.96
2019-04-04T03:08:59.378Z,18.97
2019-04-04T03:09:59.501Z,18.97
2019-04-04T03:10:59.401Z,18.96
2019-04-04T03:11:59.457Z,18.97
2019-04-04T03:12:59.585Z,18.96
2019-04-04T03:14:03.099Z,18.95
2019-04-04T03:14:59.334Z,18.95
2019-04-04T03:15:59.916Z,18.96
2019-04-04T03:16:59.203Z,18.96
2019-04-04T03:17:59.232Z,18.96
2019-04-04T03:18:59.253Z,18.95
2019-04-04T03:19:59.229Z,18.96
2019-04-04T03:20:59.249Z,18.94
2019-04-04T03:21:59.287Z,18.94
2019-04-04T03:23:00.479Z,18.95
2019-04-04T03:23:59.300Z,18.95
2019-04-04T03:24:59.304Z,18.93
2019-04-04T03:25:59.241Z,18.93
2019-04-04T03:26:59.313Z,18.94
2019-04-04T03:27:59.457Z,18.94
2019-04-04T03:29:04.080Z,18.93
2019-04-04T03:29:59.399Z,18.93
2019-04-04T03:31:02.705Z,18.94
2019-04-04T03:31:59.313Z,18.93
2019-04-04T03:32:59.220Z,18.93
2019-04-04T03:33:59.226Z,18.93
2019-04-04T03:34:59.233Z,18.93
2019-04-04T03:36:00.926Z,18.92
2019-04-04T03:36:59.552Z,18.92
2019-04-04T03:37:59.270Z,18.92
2019-04-04T03:38:59.319Z,18.92
2019-04-04T03:39:59.324Z,18.93
2019-04-04T03:40:59.427Z,18.94
2019-04-04T03:41:59.245Z,18.94
2019-04-04T03:42:59.407Z,18.94
2019-04-04T03:43:59.359Z,18.94
2019-04-04T03:44:59.457Z,18.95
2019-04-04T03:46:01.271Z,18.95
2019-04-04T03:46:59.494Z,18.97
2019-04-04T03:47:59.414Z,18.97
2019-04-04T03:48:59.179Z,18.98
2019-04-04T03:49:59.269Z,18.98
2019-04-04T03:51:03.358Z,18.99
2019-04-04T03:51:59.166Z,19
2019-04-04T03:52:59.129Z,19.01
2019-04-04T03:53:59.389Z,19.02
2019-04-04T03:54:59.394Z,19.03
2019-04-04T03:56:01.127Z,19.03
2019-04-04T03:56:59.208Z,19.04
2019-04-04T03:57:59.689Z,19.05
2019-04-04T03:59:00.002Z,19.06
2019-04-04T03:59:59.287Z,19.07
2019-04-04T04:00:59.525Z,19.09
2019-04-04T04:01:59.309Z,19.11
2019-04-04T04:02:59.413Z,19.11
2019-04-04T04:03:59.363Z,19.14
2019-04-04T04:05:00.861Z,19.14
2019-04-04T04:05:59.615Z,19.16
2019-04-04T04:06:59.444Z,19.19
2019-04-04T04:07:59.147Z,19.19
2019-04-04T04:08:59.215Z,19.21
2019-04-04T04:10:00.396Z,19.23
2019-04-04T04:10:59.237Z,19.24
2019-04-04T04:11:59.333Z,19.26
2019-04-04T04:12:59.219Z,19.27
2019-04-04T04:13:59.341Z,19.29
2019-04-04T04:14:59.262Z,19.31
2019-04-04T04:16:02.396Z,19.32
2019-04-04T04:16:59.289Z,19.34
2019-04-04T04:17:59.315Z,19.35
2019-04-04T04:18:59.332Z,19.36
2019-04-04T04:20:03.149Z,19.38
2019-04-04T04:20:59.525Z,19.4
2019-04-04T04:21:59.357Z,19.41
2019-04-04T04:22:59.375Z,19.42
2019-04-04T04:23:59.519Z,19.44
2019-04-04T04:25:02.018Z,19.45
2019-04-04T04:25:59.159Z,19.47
2019-04-04T04:26:59.180Z,19.47
2019-04-04T04:28:02.753Z,19.49
2019-04-04T04:28:59.257Z,19.5
2019-04-04T04:29:59.727Z,19.51
2019-04-04T04:30:59.196Z,19.52
2019-04-04T04:31:59.218Z,19.52
2019-04-04T04:32:59.253Z,19.53
2019-04-04T04:34:01.548Z,19.53
2019-04-04T04:34:59.342Z,19.55
2019-04-04T04:35:59.238Z,19.56
2019-04-04T04:36:59.309Z,19.57
2019-04-04T04:37:59.374Z,19.56
2019-04-04T04:39:00.253Z,19.58
2019-04-04T04:39:59.335Z,19.58
2019-04-04T04:40:59.327Z,19.59
2019-04-04T04:41:59.896Z,19.6
2019-04-04T04:43:00.656Z,19.6
2019-04-04T04:43:59.425Z,19.61
2019-04-04T04:44:59.158Z,19.6
2019-04-04T04:45:59.183Z,19.62
2019-04-04T04:46:59.210Z,19.62
2019-04-04T04:47:59.228Z,19.62
2019-04-04T04:49:00.554Z,19.62
2019-04-04T04:49:59.596Z,19.62
2019-04-04T04:50:59.383Z,19.63
2019-04-04T04:51:59.356Z,19.63
2019-04-04T04:52:59.315Z,19.64
2019-04-04T04:53:59.292Z,19.64
2019-04-04T04:54:59.361Z,19.64
2019-04-04T04:56:00.421Z,19.63
2019-04-04T04:57:03.345Z,19.64
2019-04-04T04:57:59.347Z,19.64
2019-04-04T04:58:59.339Z,19.64
2019-04-04T04:59:59.344Z,19.65
2019-04-04T05:00:59.455Z,19.64
2019-04-04T05:01:59.501Z,19.64
2019-04-04T05:02:59.402Z,19.65
2019-04-04T05:04:02.242Z,19.64
2019-04-04T05:04:59.889Z,19.65
2019-04-04T05:06:00.445Z,19.64
2019-04-04T05:06:59.191Z,19.65
2019-04-04T05:07:59.269Z,19.64
2019-04-04T05:08:59.184Z,19.64
2019-04-04T05:09:59.311Z,19.64
2019-04-04T05:10:59.227Z,19.64
2019-04-04T05:11:59.261Z,19.64
2019-04-04T05:12:59.262Z,19.64
2019-04-04T05:13:59.470Z,19.64
2019-04-04T05:15:01.266Z,19.63
2019-04-04T05:15:59.286Z,19.63
2019-04-04T05:16:59.334Z,19.63
2019-04-04T05:17:59.289Z,19.63
2019-04-04T05:18:59.510Z,19.63
2019-04-04T05:19:59.331Z,19.62
2019-04-04T05:21:01.376Z,19.63
2019-04-04T05:21:59.472Z,19.62
2019-04-04T05:22:59.177Z,19.62
2019-04-04T05:23:59.282Z,19.63
2019-04-04T05:25:07.729Z,19.63
2019-04-04T05:26:02.092Z,19.62
2019-04-04T05:26:59.221Z,19.63
2019-04-04T05:27:59.234Z,19.63
2019-04-04T05:28:59.232Z,19.62
2019-04-04T05:29:59.239Z,19.63
2019-04-04T05:30:59.252Z,19.61
2019-04-04T05:31:59.270Z,19.61
2019-04-04T05:32:59.339Z,19.62
2019-04-04T05:33:59.785Z,19.62
2019-04-04T05:35:01.138Z,19.62
2019-04-04T05:35:59.306Z,19.61
2019-04-04T05:36:59.381Z,19.61
2019-04-04T05:37:59.478Z,19.61
2019-04-04T05:38:59.430Z,19.61
2019-04-04T05:39:59.374Z,19.61
2019-04-04T05:40:59.216Z,19.6
2019-04-04T05:42:00.333Z,19.6
2019-04-04T05:42:59.170Z,19.61
2019-04-04T05:43:59.137Z,19.6
2019-04-04T05:44:59.158Z,19.61
2019-04-04T05:45:59.210Z,19.6
2019-04-04T05:47:00.070Z,19.6
2019-04-04T05:47:59.883Z,19.59
2019-04-04T05:49:00.008Z,19.59
2019-04-04T05:49:59.196Z,19.58
2019-04-04T05:50:59.229Z,19.58
2019-04-04T05:51:59.262Z,19.59
2019-04-04T05:52:59.270Z,19.58
2019-04-04T05:53:59.435Z,19.58
2019-04-04T05:54:59.393Z,19.58
2019-04-04T05:56:00.463Z,19.58
2019-04-04T05:56:59.338Z,19.57
2019-04-04T05:57:59.353Z,19.58
2019-04-04T05:58:59.106Z,19.57
2019-04-04T05:59:59.149Z,19.57
2019-04-04T06:01:01.489Z,19.56
2019-04-04T06:01:59.136Z,19.56
2019-04-04T06:02:59.172Z,19.56
2019-04-04T06:03:59.222Z,19.56
2019-04-04T06:04:59.220Z,19.56
2019-04-04T06:06:01.235Z,19.56
2019-04-04T06:06:59.241Z,19.54
2019-04-04T06:07:59.333Z,19.55
2019-04-04T06:08:59.352Z,19.55
2019-04-04T06:09:59.284Z,19.54
2019-04-04T06:10:59.315Z,19.54
2019-04-04T06:11:59.393Z,19.54
2019-04-04T06:12:59.326Z,19.54
2019-04-04T06:13:59.667Z,19.54
2019-04-04T06:15:00.494Z,19.53
2019-04-04T06:15:59.396Z,19.53
2019-04-04T06:16:59.089Z,19.52
2019-04-04T06:17:59.098Z,19.53
2019-04-04T06:18:59.140Z,19.52
2019-04-04T06:19:59.122Z,19.52
2019-04-04T06:20:59.151Z,19.51
2019-04-04T06:21:59.155Z,19.51
2019-04-04T06:22:59.303Z,19.5
2019-04-04T06:23:59.166Z,19.5
2019-04-04T06:24:59.926Z,19.5
2019-04-04T06:25:59.230Z,19.51
2019-04-04T06:26:59.222Z,19.5
2019-04-04T06:27:59.368Z,19.5
2019-04-04T06:28:59.370Z,19.49
2019-04-04T06:29:59.356Z,19.49
2019-04-04T06:31:00.781Z,19.5
2019-04-04T06:32:00.280Z,19.5
2019-04-04T06:32:59.395Z,19.5
2019-04-04T06:33:59.344Z,19.5
2019-04-04T06:34:59.138Z,19.49
2019-04-04T06:35:59.157Z,19.49
2019-04-04T06:36:59.145Z,19.49
2019-04-04T06:37:59.156Z,19.49
2019-04-04T06:38:59.254Z,19.49
2019-04-04T06:39:59.522Z,19.5
2019-04-04T06:41:00.821Z,19.49
2019-04-04T06:41:59.219Z,19.5
2019-04-04T06:42:59.231Z,19.49
2019-04-04T06:43:59.234Z,19.5
2019-04-04T06:44:59.312Z,19.51
2019-04-04T06:45:59.332Z,19.51
2019-04-04T06:47:01.862Z,19.52
2019-04-04T06:47:59.289Z,19.52
2019-04-04T06:48:59.399Z,19.52
2019-04-04T06:49:59.370Z,19.53
2019-04-04T06:50:59.343Z,19.53
2019-04-04T06:51:59.345Z,19.53
2019-04-04T06:53:00.088Z,19.53
2019-04-04T06:53:59.573Z,19.54
2019-04-04T06:54:59.142Z,19.54
2019-04-04T06:56:00.245Z,19.53
2019-04-04T06:56:59.414Z,19.54
2019-04-04T06:57:59.175Z,19.54
2019-04-04T06:58:59.151Z,19.54
2019-04-04T06:59:59.242Z,19.54
2019-04-04T07:00:59.210Z,19.54
2019-04-04T07:01:59.221Z,19.55
2019-04-04T07:02:59.224Z,19.56
2019-04-04T07:04:00.127Z,19.56
2019-04-04T07:04:59.221Z,19.56
2019-04-04T07:05:59.319Z,19.57
2019-04-04T07:06:59.287Z,19.57
2019-04-04T07:07:59.281Z,19.57
2019-04-04T07:08:59.300Z,19.57
2019-04-04T07:09:59.340Z,19.57
2019-04-04T07:11:02.649Z,19.58
2019-04-04T07:11:59.149Z,19.57
2019-04-04T07:13:09.622Z,19.58
2019-04-04T07:13:59.947Z,19.58
2019-04-04T07:14:59.181Z,19.58
2019-04-04T07:16:06.568Z,19.58
2019-04-04T07:16:59.356Z,19.59
2019-04-04T07:17:59.236Z,19.59
2019-04-04T07:18:59.291Z,19.59
2019-04-04T07:19:59.230Z,19.59
2019-04-04T07:20:59.331Z,19.59
2019-04-04T07:21:59.328Z,19.6
2019-04-04T07:22:59.271Z,19.6
2019-04-04T07:24:00.041Z,19.6
2019-04-04T07:25:01.043Z,19.61
2019-04-04T07:25:59.339Z,19.61
2019-04-04T07:26:59.350Z,19.6
2019-04-04T07:27:59.377Z,19.61
2019-04-04T07:28:59.123Z,19.61
2019-04-04T07:29:59.091Z,19.61
2019-04-04T07:30:59.263Z,19.61
2019-04-04T07:31:59.083Z,19.61
2019-04-04T07:32:59.134Z,19.61
2019-04-04T07:33:59.327Z,19.61
2019-04-04T07:34:59.323Z,19.61
2019-04-04T07:35:59.482Z,19.61
2019-04-04T07:36:59.197Z,19.61
2019-04-04T07:37:59.307Z,19.61
2019-04-04T07:39:00.287Z,19.61
2019-04-04T07:40:03.104Z,19.61
2019-04-04T07:40:59.247Z,19.61
2019-04-04T07:41:59.269Z,19.61
2019-04-04T07:42:59.280Z,19.61
2019-04-04T07:43:59.274Z,19.61
2019-04-04T07:44:59.170Z,19.61
2019-04-04T07:45:59.982Z,19.61
2019-04-04T07:46:59.204Z,19.6
2019-04-04T07:47:59.216Z,19.6
2019-04-04T07:48:59.210Z,19.6
2019-04-04T07:49:59.137Z,19.6
2019-04-04T07:50:59.301Z,19.6
2019-04-04T07:52:00.088Z,19.61
2019-04-04T07:52:59.203Z,19.6
2019-04-04T07:53:59.248Z,19.6
2019-04-04T07:54:59.353Z,19.6
2019-04-04T07:55:59.534Z,19.6
2019-04-04T07:56:59.392Z,19.6
2019-04-04T07:57:59.269Z,19.6
2019-04-04T07:58:59.325Z,19.6
2019-04-04T07:59:59.297Z,19.59
2019-04-04T08:00:59.316Z,19.6
2019-04-04T08:01:59.408Z,19.59
2019-04-04T08:02:59.370Z,19.59
2019-04-04T08:03:59.116Z,19.59
2019-04-04T08:04:59.052Z,19.58
2019-04-04T08:05:59.086Z,19.58
2019-04-04T08:06:59.249Z,19.58
2019-04-04T08:07:59.112Z,19.58
2019-04-04T08:08:59.168Z,19.58
2019-04-04T08:09:59.115Z,19.58
2019-04-04T08:10:59.138Z,19.57
2019-04-04T08:11:59.326Z,19.57
2019-04-04T08:12:59.196Z,19.57
2019-04-04T08:13:59.339Z,19.57
2019-04-04T08:14:59.199Z,19.58
2019-04-04T08:15:59.231Z,19.57
2019-04-04T08:16:59.261Z,19.56
2019-04-04T08:17:59.263Z,19.56
2019-04-04T08:18:59.290Z,19.57
2019-04-04T08:20:00.081Z,19.56
2019-04-04T08:20:59.417Z,19.56
2019-04-04T08:21:59.183Z,19.56
2019-04-04T08:22:59.090Z,19.55
2019-04-04T08:23:59.099Z,19.55
2019-04-04T08:24:59.165Z,19.55
2019-04-04T08:25:59.192Z,19.54
2019-04-04T08:26:59.199Z,19.55
2019-04-04T08:27:59.186Z,19.54
2019-04-04T08:28:59.160Z,19.54
2019-04-04T08:29:59.287Z,19.54
2019-04-04T08:30:59.305Z,19.54
2019-04-04T08:31:59.198Z,19.53
2019-04-04T08:32:59.244Z,19.53
2019-04-04T08:33:59.361Z,19.53
2019-04-04T08:34:59.241Z,19.52
2019-04-04T08:36:05.674Z,19.52
2019-04-04T08:36:59.419Z,19.52
2019-04-04T08:37:59.310Z,19.52
2019-04-04T08:38:59.043Z,19.52
2019-04-04T08:39:59.239Z,19.51
2019-04-04T08:40:59.292Z,19.51
2019-04-04T08:41:59.189Z,19.51
2019-04-04T08:42:59.108Z,19.51
2019-04-04T08:43:59.276Z,19.51
2019-04-04T08:44:59.155Z,19.51
2019-04-04T08:45:59.175Z,19.5
2019-04-04T08:46:59.165Z,19.51
2019-04-04T08:47:59.174Z,19.51
2019-04-04T08:48:59.066Z,19.51
2019-04-04T08:49:59.215Z,19.5
2019-04-04T08:50:59.259Z,19.5
2019-04-04T08:51:59.229Z,19.49
2019-04-04T08:52:59.226Z,19.49
2019-04-04T08:53:59.267Z,19.5
2019-04-04T08:54:59.283Z,19.49
2019-04-04T08:55:59.100Z,19.49
2019-04-04T08:56:59.083Z,19.5
2019-04-04T08:57:59.113Z,19.49
2019-04-04T08:58:59.189Z,19.48
2019-04-04T08:59:59.195Z,19.49
2019-04-04T09:00:59.150Z,19.49
2019-04-04T09:01:59.486Z,19.49
2019-04-04T09:02:59.297Z,19.48
2019-04-04T09:03:59.188Z,19.49
2019-04-04T09:05:11.111Z,19.48
2019-04-04T09:05:59.228Z,19.48
2019-04-04T09:06:59.291Z,19.48
2019-04-04T09:07:59.222Z,19.48
2019-04-04T09:08:59.221Z,19.48
2019-04-04T09:09:59.294Z,19.47
2019-04-04T09:10:59.301Z,19.47
2019-04-04T09:11:59.246Z,19.48
2019-04-04T09:12:59.312Z,19.47
2019-04-04T09:13:59.028Z,19.47
2019-04-04T09:14:59.030Z,19.46
2019-04-04T09:15:59.126Z,19.46
2019-04-04T09:16:59.073Z,19.47
2019-04-04T09:17:59.099Z,19.46
2019-04-04T09:18:59.120Z,19.47
2019-04-04T09:19:59.099Z,19.47
2019-04-04T09:20:59.159Z,19.47
2019-04-04T09:21:59.320Z,19.47
2019-04-04T09:22:59.235Z,19.46
2019-04-04T09:24:00.729Z,19.46
2019-04-04T09:24:59.196Z,19.46
2019-04-04T09:26:05.212Z,19.46
2019-04-04T09:26:59.235Z,19.46
2019-04-04T09:27:59.227Z,19.46
2019-04-04T09:28:59.234Z,19.46
2019-04-04T09:29:59.246Z,19.46
2019-04-04T09:30:59.050Z,19.46
2019-04-04T09:31:59.079Z,19.46
2019-04-04T09:32:59.184Z,19.46
2019-04-04T09:33:59.116Z,19.46
2019-04-04T09:34:59.144Z,19.45
2019-04-04T09:35:59.089Z,19.45
2019-04-04T09:36:59.144Z,19.46
2019-04-04T09:37:59.141Z,19.45
2019-04-04T09:38:59.231Z,19.46
2019-04-04T09:39:59.239Z,19.46
2019-04-04T09:40:59.261Z,19.46
2019-04-04T09:41:59.279Z,19.46
2019-04-04T09:42:59.222Z,19.46
2019-04-04T09:43:59.208Z,19.46
2019-04-04T09:44:59.489Z,19.46
2019-04-04T09:45:59.366Z,19.45
2019-04-04T09:47:05.094Z,19.45
2019-04-04T09:47:59.263Z,19.45
2019-04-04T09:48:59.304Z,19.46
2019-04-04T09:49:59.034Z,19.46
2019-04-04T09:50:59.192Z,19.46
2019-04-04T09:51:59.027Z,19.46
2019-04-04T09:52:59.089Z,19.46
2019-04-04T09:53:59.063Z,19.46
2019-04-04T09:54:59.172Z,19.47
2019-04-04T09:55:59.104Z,19.45
2019-04-04T09:56:59.112Z,19.46
2019-04-04T09:57:59.147Z,19.45
2019-04-04T09:58:59.130Z,19.46
2019-04-04T09:59:59.149Z,19.46
2019-04-04T10:00:59.223Z,19.46
2019-04-04T10:01:59.360Z,19.45
2019-04-04T10:02:59.183Z,19.46
2019-04-04T10:03:59.211Z,19.46
2019-04-04T10:04:59.226Z,19.46
2019-04-04T10:05:59.220Z,19.46
2019-04-04T10:06:59.270Z,19.45
2019-04-04T10:07:59.461Z,19.46
2019-04-04T10:08:59.069Z,19.46
2019-04-04T10:09:59.088Z,19.47
2019-04-04T10:10:59.090Z,19.46
2019-04-04T10:11:59.097Z,19.46
2019-04-04T10:12:59.138Z,19.46
2019-04-04T10:13:59.221Z,19.45
2019-04-04T10:14:59.154Z,19.46
2019-04-04T10:15:59.218Z,19.45
2019-04-04T10:16:59.140Z,19.46
2019-04-04T10:17:59.179Z,19.46
2019-04-04T10:18:59.201Z,19.46
2019-04-04T10:19:59.175Z,19.47
2019-04-04T10:21:11.057Z,19.47
2019-04-04T10:21:59.255Z,19.46
2019-04-04T10:22:59.214Z,19.46
2019-04-04T10:23:59.277Z,19.47
2019-04-04T10:24:59.325Z,19.47
2019-04-04T10:25:59.465Z,19.46
2019-04-04T10:26:59.009Z,19.47
2019-04-04T10:27:59.020Z,19.47
2019-04-04T10:28:59.044Z,19.47
2019-04-04T10:29:59.254Z,19.47
2019-04-04T10:30:59.215Z,19.47
2019-04-04T10:31:59.072Z,19.47
2019-04-04T10:32:59.193Z,19.47
2019-04-04T10:33:59.022Z,19.47
2019-04-04T10:34:59.125Z,19.47
2019-04-04T10:35:59.130Z,19.47
2019-04-04T10:36:59.189Z,19.47
2019-04-04T10:37:59.132Z,19.47
2019-04-04T10:38:59.188Z,19.46
2019-04-04T10:39:59.211Z,19.46
2019-04-04T10:40:59.185Z,19.47
2019-04-04T10:41:59.199Z,19.47
2019-04-04T10:42:59.240Z,19.47
2019-04-04T10:43:59.318Z,19.47
2019-04-04T10:44:59.075Z,19.47
2019-04-04T10:45:59.067Z,19.47
2019-04-04T10:46:59.078Z,19.48
2019-04-04T10:47:59.069Z,19.47
2019-04-04T10:48:59.166Z,19.47
2019-04-04T10:49:59.113Z,19.48
2019-04-04T10:50:59.115Z,19.48
2019-04-04T10:51:59.217Z,19.48
2019-04-04T10:52:59.150Z,19.48
2019-04-04T10:53:59.159Z,19.48
2019-04-04T10:55:01.442Z,19.48
2019-04-04T10:55:59.259Z,19.47
2019-04-04T10:56:59.266Z,19.48
2019-04-04T10:57:59.219Z,19.47
2019-04-04T10:58:59.216Z,19.47
2019-04-04T10:59:59.340Z,19.48
2019-04-04T11:00:59.383Z,19.48
2019-04-04T11:02:00.894Z,19.48
2019-04-04T11:02:58.970Z,19.47
2019-04-04T11:03:59.191Z,19.47
2019-04-04T11:04:59.022Z,19.48
2019-04-04T11:05:59.048Z,19.48
2019-04-04T11:06:59.086Z,19.48
2019-04-04T11:07:59.214Z,19.48
2019-04-04T11:08:59.058Z,19.47
2019-04-04T11:09:59.222Z,19.48
2019-04-04T11:10:59.253Z,19.47
2019-04-04T11:11:59.107Z,19.48
2019-04-04T11:12:59.219Z,19.47
2019-04-04T11:13:59.163Z,19.48
2019-04-04T11:14:59.157Z,19.47
2019-04-04T11:15:59.183Z,19.48
2019-04-04T11:16:59.171Z,19.47
2019-04-04T11:17:59.254Z,19.48
2019-04-04T11:18:59.247Z,19.49
2019-04-04T11:19:59.217Z,19.49
2019-04-04T11:20:59.016Z,19.48
2019-04-04T11:21:59.022Z,19.48
2019-04-04T11:22:59.064Z,19.48
2019-04-04T11:23:59.415Z,19.49
2019-04-04T11:24:59.078Z,19.48
2019-04-04T11:25:59.089Z,19.47
2019-04-04T11:26:59.110Z,19.48
2019-04-04T11:27:59.120Z,19.48
2019-04-04T11:28:59.169Z,19.48
2019-04-04T11:29:59.141Z,19.48
2019-04-04T11:30:59.155Z,19.48
2019-04-04T11:31:59.199Z,19.48
2019-04-04T11:32:59.320Z,19.48
2019-04-04T11:33:59.262Z,19.47
2019-04-04T11:34:59.255Z,19.48
2019-04-04T11:35:59.239Z,19.48
2019-04-04T11:36:59.228Z,19.47
2019-04-04T11:37:59.245Z,19.47
2019-04-04T11:38:58.990Z,19.48
2019-04-04T11:39:59.045Z,19.48
2019-04-04T11:40:59.175Z,19.48
2019-04-04T11:41:59.129Z,19.48
2019-04-04T11:42:59.057Z,19.48
2019-04-04T11:43:59.127Z,19.49
2019-04-04T11:44:59.045Z,19.49
2019-04-04T11:45:59.083Z,19.49
2019-04-04T11:46:59.122Z,19.48
2019-04-04T11:47:59.093Z,19.48
2019-04-04T11:48:59.214Z,19.48
2019-04-04T11:49:59.107Z,19.47
2019-04-04T11:50:59.156Z,19.48
2019-04-04T11:51:59.324Z,19.49
2019-04-04T11:52:59.141Z,19.48
2019-04-04T11:53:59.197Z,19.48
2019-04-04T11:54:59.209Z,19.48
2019-04-04T11:55:59.245Z,19.49
2019-04-04T11:56:59.407Z,19.48
2019-04-04T11:57:59.030Z,19.48
2019-04-04T11:58:59.027Z,19.49
2019-04-04T11:59:59.050Z,19.49
2019-04-04T12:00:59.068Z,19.48
2019-04-04T12:01:59.150Z,19.49
2019-04-04T12:02:59.069Z,19.48
2019-04-04T12:03:59.106Z,19.49
2019-04-04T12:04:59.154Z,19.48
2019-04-04T12:05:59.154Z,19.48
2019-04-04T12:06:59.162Z,19.49
2019-04-04T12:07:59.171Z,19.48
2019-04-04T12:08:59.243Z,19.48
2019-04-04T12:10:07.044Z,19.48
2019-04-04T12:10:59.264Z,19.48
2019-04-04T12:11:59.309Z,19.49
2019-04-04T12:12:59.343Z,19.49
2019-04-04T12:13:59.379Z,19.48
2019-04-04T12:14:58.974Z,19.48
2019-04-04T12:15:59.060Z,19.48
2019-04-04T12:16:58.984Z,19.49
2019-04-04T12:17:59.966Z,19.48
2019-04-04T12:18:59.036Z,19.49
2019-04-04T12:19:59.104Z,19.48
2019-04-04T12:20:59.065Z,19.48
2019-04-04T12:21:59.086Z,19.49
2019-04-04T12:22:59.093Z,19.49
2019-04-04T12:23:59.095Z,19.49
2019-04-04T12:24:59.145Z,19.48
2019-04-04T12:25:59.120Z,19.48
2019-04-04T12:26:59.140Z,19.48
2019-04-04T12:27:59.178Z,19.49
2019-04-04T12:28:59.233Z,19.49
2019-04-04T12:29:59.151Z,19.49
2019-04-04T12:30:59.270Z,19.48
2019-04-04T12:31:59.328Z,19.49
2019-04-04T12:32:59.218Z,19.49
2019-04-04T12:34:01.809Z,19.49
2019-04-04T12:34:59.026Z,19.48
2019-04-04T12:35:59.024Z,19.49
2019-04-04T12:36:59.057Z,19.49
2019-04-04T12:37:59.077Z,19.48
2019-04-04T12:38:59.060Z,19.49
2019-04-04T12:39:59.245Z,19.48
2019-04-04T12:40:59.076Z,19.48
2019-04-04T12:41:59.106Z,19.49
2019-04-04T12:42:59.161Z,19.48
2019-04-04T12:43:59.142Z,19.48
2019-04-04T12:44:59.138Z,19.48
2019-04-04T12:45:59.190Z,19.48
2019-04-04T12:46:59.182Z,19.48
2019-04-04T12:47:59.193Z,19.47
2019-04-04T12:48:59.209Z,19.48
2019-04-04T12:49:59.295Z,19.48
2019-04-04T12:50:59.195Z,19.49
2019-04-04T12:51:58.990Z,19.48
2019-04-04T12:52:58.983Z,19.48
2019-04-04T12:53:59.108Z,19.48
2019-04-04T12:54:59.212Z,19.48
2019-04-04T12:55:59.036Z,19.48